Time;durP1;ratioP1;P1;durP2;ratioP2;P2;SDS_P1;SDS_P2;PMS_P1;PMS_P2;Temp;Humidity;BMP_temperature;BMP_pressure;BME280_temperature;BME280_humidity;BME280_pressure;Samples;Min_cycle;Max_cycle;Signal;HPM_P1;HPM_P2
2022/02/19 00:02:02;;;;;;;16.70;2.50;;;10.70;73.90;;;;;;5040256;28;20028;-79
2022/02/19 00:04:27;;;;;;;13.35;2.80;;;10.70;73.70;;;;;;5040788;28;20033;-79
2022/02/19 00:06:53;;;;;;;15.98;2.70;;;10.70;73.70;;;;;;5040056;28;20029;-79
2022/02/19 00:09:18;;;;;;;12.57;2.63;;;10.70;73.50;;;;;;5039736;28;20061;-79
2022/02/19 00:11:44;;;;;;;10.70;2.53;;;10.70;73.60;;;;;;5042032;28;20029;-79
2022/02/19 00:14:09;;;;;;;11.50;2.30;;;10.70;73.70;;;;;;5059693;28;20029;-78
2022/02/19 00:16:36;;;;;;;10.82;2.42;;;10.80;73.50;;;;;;5061531;28;20028;-79
2022/02/19 00:19:03;;;;;;;9.88;2.20;;;10.70;73.70;;;;;;5059402;28;20096;-80
2022/02/19 00:21:28;;;;;;;9.85;2.30;;;10.70;73.60;;;;;;5058998;28;20021;-78
2022/02/19 00:23:54;;;;;;;8.90;2.60;;;10.70;73.80;;;;;;5059925;28;20051;-79
2022/02/19 00:26:19;;;;;;;9.93;1.95;;;10.70;73.60;;;;;;5059168;28;20027;-78
2022/02/19 00:28:45;;;;;;;8.07;2.20;;;10.70;73.50;;;;;;5080064;28;20077;-79
2022/02/19 00:31:10;;;;;;;8.88;2.10;;;10.70;73.40;;;;;;5079810;28;20029;-78
2022/02/19 00:33:36;;;;;;;12.13;2.97;;;10.70;73.50;;;;;;5082482;28;20025;-79
2022/02/19 00:36:02;;;;;;;7.78;1.98;;;10.60;73.30;;;;;;5080936;28;20020;-80
2022/02/19 00:38:28;;;;;;;8.35;1.70;;;10.70;73.40;;;;;;5082369;28;20024;-79
2022/02/19 00:40:54;;;;;;;9.18;1.90;;;10.70;73.30;;;;;;5081678;28;20047;-79
2022/02/19 00:43:19;;;;;;;8.20;2.20;;;10.70;73.30;;;;;;5080888;28;20029;-79
2022/02/19 00:45:45;;;;;;;8.85;2.50;;;10.70;73.30;;;;;;5081440;28;20390;-79
2022/02/19 00:48:10;;;;;;;9.02;1.63;;;10.70;73.10;;;;;;5081281;28;20101;-79
2022/02/19 00:50:36;;;;;;;9.93;2.05;;;10.60;73.20;;;;;;5081020;28;20036;-79
2022/02/19 00:53:02;;;;;;;7.10;1.67;;;10.70;73.00;;;;;;5079932;28;20025;-78
2022/02/19 00:55:28;;;;;;;8.23;2.10;;;10.70;73.50;;;;;;5079314;28;20035;-79
2022/02/19 00:57:54;;;;;;;8.68;2.10;;;10.60;72.90;;;;;;5078036;28;20425;-79
2022/02/19 01:00:20;;;;;;;8.98;1.80;;;10.70;73.00;;;;;;5078608;28;20025;-79
2022/02/19 01:02:45;;;;;;;7.90;1.70;;;10.70;73.00;;;;;;5072905;22;20103;-79
2022/02/19 01:05:11;;;;;;;9.60;2.25;;;10.70;73.00;;;;;;5033030;28;20357;-78
2022/02/19 01:07:37;;;;;;;8.10;1.83;;;10.60;72.70;;;;;;5016023;28;20029;-78
2022/02/19 01:10:04;;;;;;;7.35;1.50;;;10.70;73.00;;;;;;5033884;28;20029;-78
2022/02/19 01:12:30;;;;;;;8.35;2.35;;;10.60;72.80;;;;;;5033836;28;20510;-78
2022/02/19 01:14:55;;;;;;;5.95;1.77;;;10.60;72.60;;;;;;5015939;28;20034;-78
2022/02/19 01:17:21;;;;;;;8.43;1.83;;;10.70;72.90;;;;;;5015482;28;20028;-78
2022/02/19 01:19:46;;;;;;;9.57;1.70;;;10.60;72.80;;;;;;5015940;28;20018;-78
2022/02/19 01:22:12;;;;;;;9.73;1.90;;;10.60;72.70;;;;;;5016188;28;20114;-78
2022/02/19 01:24:38;;;;;;;10.50;2.13;;;10.60;72.60;;;;;;5015788;28;20033;-78
2022/02/19 01:27:03;;;;;;;10.68;1.63;;;10.60;72.60;;;;;;5015967;28;20029;-80
2022/02/19 01:29:29;;;;;;;8.07;1.75;;;10.60;72.60;;;;;;5015702;28;20125;-78
2022/02/19 01:31:55;;;;;;;9.63;1.40;;;10.60;72.60;;;;;;5015814;28;20025;-78
2022/02/19 01:34:23;;;;;;;7.10;1.80;;;10.50;72.50;;;;;;5015664;28;20025;-78
2022/02/19 01:36:49;;;;;;;9.43;1.50;;;10.60;72.60;;;;;;5033427;28;20045;-77
2022/02/19 01:39:15;;;;;;;10.20;1.80;;;10.60;72.60;;;;;;5015049;28;20021;-78
2022/02/19 01:41:41;;;;;;;10.38;2.22;;;10.60;72.70;;;;;;5015545;28;20028;-78
2022/02/19 01:44:08;;;;;;;11.13;1.80;;;10.60;72.60;;;;;;5015643;28;20030;-78
2022/02/19 01:46:35;;;;;;;7.07;1.60;;;10.60;72.60;;;;;;5015696;28;20033;-77
2022/02/19 01:49:01;;;;;;;9.80;1.80;;;10.60;72.60;;;;;;5015254;28;20395;-77
2022/02/19 01:51:31;;;;;;;6.68;1.63;;;10.60;72.60;;;;;;5015402;28;20033;-78
2022/02/19 01:54:00;;;;;;;6.53;1.45;;;10.60;72.60;;;;;;5033235;28;20025;-78
2022/02/19 01:56:26;;;;;;;6.63;1.40;;;10.60;72.70;;;;;;5015585;28;20026;-77
2022/02/19 01:58:52;;;;;;;6.68;1.73;;;10.60;72.60;;;;;;5014977;28;20391;-77
2022/02/19 02:01:17;;;;;;;7.50;1.60;;;10.60;72.60;;;;;;5015252;28;20032;-78
2022/02/19 02:03:43;;;;;;;8.25;1.77;;;10.60;72.50;;;;;;5014927;28;20033;-78
2022/02/19 02:06:09;;;;;;;7.72;1.48;;;10.60;72.50;;;;;;5015302;28;20491;-78
2022/02/19 02:08:35;;;;;;;9.68;1.88;;;10.60;72.60;;;;;;5032712;28;20087;-78
2022/02/19 02:11:02;;;;;;;8.38;2.08;;;10.60;72.50;;;;;;5032946;28;20461;-78
2022/02/19 02:13:28;;;;;;;6.72;1.83;;;10.60;72.30;;;;;;5032613;28;20036;-78
2022/02/19 02:15:54;;;;;;;9.93;1.83;;;10.60;72.40;;;;;;5033305;28;20030;-77
2022/02/19 02:18:19;;;;;;;8.45;1.80;;;10.60;72.40;;;;;;5015192;28;20030;-78
2022/02/19 02:20:45;;;;;;;9.88;1.58;;;10.60;72.40;;;;;;5014730;28;20432;-78
2022/02/19 02:23:14;;;;;;;7.00;1.48;;;10.60;72.50;;;;;;5014960;28;20017;-79
2022/02/19 02:25:41;;;;;;;7.35;1.88;;;10.60;72.50;;;;;;5015241;28;20491;-78
2022/02/19 02:28:09;;;;;;;7.10;1.77;;;10.60;72.60;;;;;;5015083;28;20029;-79
2022/02/19 02:30:35;;;;;;;5.15;1.20;;;10.60;72.50;;;;;;5031097;28;20018;-78
2022/02/19 02:33:12;;;;;;;7.65;1.67;;;10.60;72.60;;;;;;5014905;28;20025;-78
2022/02/19 02:35:38;;;;;;;5.90;1.50;;;10.60;73.10;;;;;;5015104;28;20509;-78
2022/02/19 02:38:04;;;;;;;6.15;1.38;;;10.60;72.40;;;;;;5031543;28;20506;-78
2022/02/19 02:40:31;;;;;;;8.73;1.85;;;10.60;72.30;;;;;;5015860;28;20039;-78
2022/02/19 02:42:57;;;;;;;7.50;1.50;;;10.50;72.40;;;;;;5014974;28;20022;-78
2022/02/19 02:45:23;;;;;;;7.55;1.65;;;10.60;72.40;;;;;;5032495;28;20059;-78
2022/02/19 02:47:48;;;;;;;6.40;1.65;;;10.60;72.50;;;;;;5014937;28;20121;-78
2022/02/19 02:50:14;;;;;;;7.78;1.63;;;10.60;72.50;;;;;;5032663;28;20445;-77
2022/02/19 02:52:40;;;;;;;8.15;1.85;;;10.60;72.40;;;;;;5018653;28;20490;-78
2022/02/19 02:55:08;;;;;;;5.38;1.40;;;10.60;72.70;;;;;;5018667;28;20017;-78
2022/02/19 02:57:34;;;;;;;7.45;1.70;;;10.60;72.50;;;;;;5036211;28;20041;-79
2022/02/19 03:00:00;;;;;;;8.13;1.85;;;10.60;72.50;;;;;;5018509;28;20553;-78
2022/02/19 03:02:26;;;;;;;6.60;1.38;;;10.60;72.50;;;;;;5018471;28;20029;-78
2022/02/19 03:04:51;;;;;;;7.50;1.60;;;10.60;72.40;;;;;;5018648;28;20399;-78
2022/02/19 03:07:17;;;;;;;7.30;1.50;;;10.50;72.50;;;;;;5018572;28;20025;-79
2022/02/19 03:09:42;;;;;;;7.03;1.67;;;10.60;72.50;;;;;;5018380;28;20021;-78
2022/02/19 03:12:10;;;;;;;6.40;1.52;;;10.60;72.40;;;;;;5036190;28;20127;-78
2022/02/19 03:14:35;;;;;;;6.18;1.45;;;10.60;72.60;;;;;;5018312;28;20031;-79
2022/02/19 03:17:01;;;;;;;6.65;1.60;;;10.50;72.50;;;;;;5018230;28;20017;-78
2022/02/19 03:19:27;;;;;;;6.15;1.50;;;10.60;72.50;;;;;;5044980;28;20021;-79
2022/02/19 03:21:52;;;;;;;7.55;1.50;;;10.50;72.50;;;;;;5038035;28;20430;-79
2022/02/19 03:24:18;;;;;;;7.05;1.60;;;10.50;72.50;;;;;;5038001;28;20037;-79
2022/02/19 03:26:44;;;;;;;6.90;1.40;;;10.50;72.40;;;;;;5037824;28;20047;-79
2022/02/19 03:29:10;;;;;;;5.68;1.40;;;10.50;72.50;;;;;;5036147;28;20516;-80
2022/02/19 03:31:35;;;;;;;8.15;1.60;;;10.50;72.40;;;;;;5018084;28;20057;-79
2022/02/19 03:34:01;;;;;;;6.57;1.67;;;10.50;72.40;;;;;;5017825;28;20013;-79
2022/02/19 03:36:26;;;;;;;6.40;1.63;;;10.60;72.50;;;;;;5035519;28;20444;-78
2022/02/19 03:38:52;;;;;;;6.78;1.45;;;10.50;72.40;;;;;;5033552;28;20053;-78
2022/02/19 03:41:17;;;;;;;6.70;1.75;;;10.50;72.40;;;;;;5039643;28;20022;-78
2022/02/19 03:43:43;;;;;;;6.22;1.60;;;10.50;72.30;;;;;;5034128;28;20032;-79
2022/02/19 03:46:08;;;;;;;6.85;1.30;;;10.50;72.60;;;;;;5034068;28;20025;-79
2022/02/19 03:48:34;;;;;;;6.97;2.08;;;10.50;73.10;;;;;;5033987;28;20137;-79
2022/02/19 03:50:59;;;;;;;8.80;1.60;;;10.50;72.80;;;;;;5034023;28;20052;-78
2022/02/19 03:53:25;;;;;;;6.75;1.60;;;10.50;72.40;;;;;;5035049;28;20026;-79
2022/02/19 03:55:51;;;;;;;10.93;1.83;;;10.50;72.50;;;;;;5033910;28;20061;-79
2022/02/19 03:58:16;;;;;;;14.35;1.98;;;10.50;72.70;;;;;;5035262;28;20022;-79
2022/02/19 04:00:42;;;;;;;10.65;1.63;;;10.50;72.70;;;;;;5033931;28;20048;-79
2022/02/19 04:03:09;;;;;;;6.93;1.38;;;10.50;72.80;;;;;;5033274;28;20061;-79
2022/02/19 04:05:35;;;;;;;8.35;1.67;;;10.50;72.80;;;;;;5033905;28;20032;-79
2022/02/19 04:08:00;;;;;;;4.00;1.10;;;10.50;72.80;;;;;;5034021;28;20029;-79
2022/02/19 04:10:26;;;;;;;7.05;1.65;;;10.50;72.80;;;;;;5033785;28;20047;-78
2022/02/19 04:12:52;;;;;;;8.60;2.00;;;10.50;72.80;;;;;;5034015;28;20048;-79
2022/02/19 04:15:17;;;;;;;9.20;1.50;;;10.50;73.00;;;;;;5033531;28;20033;-79
2022/02/19 04:17:43;;;;;;;7.63;1.42;;;10.50;72.90;;;;;;5033673;28;20125;-79
2022/02/19 04:20:08;;;;;;;8.93;1.42;;;10.50;72.70;;;;;;5033318;28;20022;-78
2022/02/19 04:22:35;;;;;;;8.00;1.30;;;10.50;72.90;;;;;;5033313;28;20592;-79
2022/02/19 04:25:01;;;;;;;5.10;1.30;;;10.50;73.00;;;;;;5033545;28;20025;-79
2022/02/19 04:27:26;;;;;;;6.65;1.33;;;10.50;72.90;;;;;;5033423;28;20051;-79
2022/02/19 04:29:52;;;;;;;5.97;1.50;;;10.50;73.00;;;;;;5034746;28;20156;-79
2022/02/19 04:32:17;;;;;;;6.70;1.27;;;10.50;72.90;;;;;;5013565;28;20032;-78
2022/02/19 04:34:43;;;;;;;7.85;1.20;;;10.50;72.80;;;;;;5013498;28;20037;-79
2022/02/19 04:37:09;;;;;;;7.65;1.83;;;10.50;72.80;;;;;;5014835;28;20037;-79
2022/02/19 04:39:35;;;;;;;7.35;1.70;;;10.50;72.90;;;;;;5013600;28;20021;-79
2022/02/19 04:42:00;;;;;;;7.63;1.40;;;10.50;72.90;;;;;;5014748;28;20483;-79
2022/02/19 04:44:26;;;;;;;6.35;1.48;;;10.50;72.80;;;;;;5013625;28;20054;-79
2022/02/19 04:46:51;;;;;;;7.18;1.52;;;10.50;72.80;;;;;;5013245;28;20062;-79
2022/02/19 04:49:17;;;;;;;7.63;1.30;;;10.50;72.90;;;;;;5013377;28;20022;-79
2022/02/19 04:51:42;;;;;;;5.53;1.10;;;10.50;72.80;;;;;;5013467;28;20030;-79
2022/02/19 04:54:08;;;;;;;8.20;1.63;;;10.50;73.20;;;;;;5013071;28;20034;-79
2022/02/19 04:56:33;;;;;;;6.57;1.42;;;10.50;73.20;;;;;;5013526;28;20026;-78
2022/02/19 04:59:00;;;;;;;6.25;1.20;;;10.50;72.70;;;;;;5012895;28;20029;-79
2022/02/19 05:01:26;;;;;;;8.18;1.35;;;10.50;72.60;;;;;;5012983;28;20072;-78
2022/02/19 05:03:54;;;;;;;7.93;1.50;;;10.50;72.60;;;;;;5013021;28;20030;-79
2022/02/19 05:06:20;;;;;;;6.80;1.20;;;10.50;72.90;;;;;;5016332;28;20045;-79
2022/02/19 05:08:45;;;;;;;6.75;1.70;;;10.50;72.90;;;;;;5016170;28;20056;-77
2022/02/19 05:11:11;;;;;;;7.82;1.60;;;10.50;72.90;;;;;;5033900;28;20034;-80
2022/02/19 05:13:37;;;;;;;6.45;1.50;;;10.50;72.80;;;;;;5015801;28;20033;-79
2022/02/19 05:16:03;;;;;;;5.57;1.50;;;10.50;73.00;;;;;;5015889;28;20537;-79
2022/02/19 05:18:28;;;;;;;4.95;1.45;;;10.50;72.90;;;;;;5034098;28;20025;-81
2022/02/19 05:20:54;;;;;;;6.15;1.25;;;10.50;72.60;;;;;;5016197;28;20021;-79
2022/02/19 05:23:22;;;;;;;6.63;1.40;;;10.50;72.50;;;;;;5016022;28;20021;-79
2022/02/19 05:25:48;;;;;;;7.55;1.65;;;10.50;72.50;;;;;;5016016;28;20669;-79
2022/02/19 05:28:14;;;;;;;5.50;1.20;;;10.50;72.60;;;;;;5033867;28;20494;-79
2022/02/19 05:30:40;;;;;;;6.30;1.30;;;10.50;72.50;;;;;;5015878;28;20018;-79
2022/02/19 05:33:05;;;;;;;4.80;1.20;;;10.50;72.60;;;;;;5016402;28;20025;-79
2022/02/19 05:35:31;;;;;;;6.45;1.77;;;10.50;72.60;;;;;;5015942;28;20442;-78
2022/02/19 05:37:57;;;;;;;7.18;1.40;;;10.50;72.50;;;;;;5033234;28;20471;-79
2022/02/19 05:40:22;;;;;;;5.13;1.10;;;10.50;72.40;;;;;;5015283;28;20057;-78
2022/02/19 05:42:48;;;;;;;5.50;1.23;;;10.50;72.60;;;;;;5015726;28;20025;-79
2022/02/19 05:45:13;;;;;;;7.50;1.60;;;10.50;72.50;;;;;;5015469;28;20096;-79
2022/02/19 05:47:39;;;;;;;5.90;1.23;;;10.50;72.40;;;;;;5033420;28;20026;-78
2022/02/19 05:50:05;;;;;;;7.85;1.27;;;10.50;72.40;;;;;;5015535;28;20096;-78
2022/02/19 05:52:31;;;;;;;7.07;1.30;;;10.50;72.50;;;;;;5015745;28;20033;-79
2022/02/19 05:54:56;;;;;;;5.68;1.48;;;10.50;72.30;;;;;;5015543;28;20079;-79
2022/02/19 05:57:22;;;;;;;7.80;1.60;;;10.50;72.50;;;;;;5026102;28;20395;-79
2022/02/19 05:59:49;;;;;;;7.65;1.45;;;10.50;72.60;;;;;;5027562;28;20417;-79
2022/02/19 06:02:16;;;;;;;7.50;1.30;;;10.50;72.40;;;;;;5015319;28;20028;-79
2022/02/19 06:04:41;;;;;;;8.30;1.52;;;10.50;72.30;;;;;;5032364;28;20025;-81
2022/02/19 06:07:07;;;;;;;7.60;1.58;;;10.40;72.30;;;;;;5014193;28;20025;-79
2022/02/19 06:09:33;;;;;;;6.65;1.45;;;10.50;72.40;;;;;;5012828;28;20029;-80
2022/02/19 06:11:58;;;;;;;7.22;1.63;;;10.50;72.20;;;;;;5014227;28;20037;-81
2022/02/19 06:14:24;;;;;;;6.10;1.20;;;10.40;72.20;;;;;;5031410;28;20062;-79
2022/02/19 06:16:50;;;;;;;7.88;1.60;;;10.40;72.20;;;;;;5013901;28;20028;-80
2022/02/19 06:19:17;;;;;;;7.50;1.50;;;10.50;72.10;;;;;;5019960;28;20115;-80
2022/02/19 06:21:42;;;;;;;6.82;1.30;;;10.40;71.80;;;;;;5033704;28;20021;-80
2022/02/19 06:24:08;;;;;;;6.25;1.40;;;10.40;72.00;;;;;;5033149;28;20143;-80
2022/02/19 06:26:33;;;;;;;6.53;2.08;;;10.50;72.00;;;;;;5015145;28;20048;-80
2022/02/19 06:28:59;;;;;;;7.88;1.60;;;10.50;72.00;;;;;;5013303;28;20029;-80
2022/02/19 06:31:25;;;;;;;7.53;1.40;;;10.40;72.10;;;;;;5014260;28;20041;-80
2022/02/19 06:33:51;;;;;;;8.68;1.60;;;10.50;72.00;;;;;;5013698;28;20038;-79
2022/02/19 06:36:18;;;;;;;6.53;1.40;;;10.50;71.90;;;;;;5013977;28;20037;-80
2022/02/19 06:38:43;;;;;;;6.38;1.60;;;10.40;71.90;;;;;;5013287;28;20096;-79
2022/02/19 06:41:10;;;;;;;6.20;1.30;;;10.50;71.80;;;;;;5013312;28;20108;-80
2022/02/19 06:43:36;;;;;;;7.05;1.50;;;10.50;72.20;;;;;;5014185;28;20027;-79
2022/02/19 06:46:03;;;;;;;7.63;1.40;;;10.50;72.00;;;;;;5046178;28;20117;-79
2022/02/19 06:48:28;;;;;;;11.27;2.20;;;10.50;71.80;;;;;;5013923;28;20033;-79
2022/02/19 06:50:56;;;;;;;9.43;1.60;;;10.50;72.00;;;;;;5031398;28;20014;-79
2022/02/19 06:53:22;;;;;;;6.07;1.38;;;10.50;71.80;;;;;;5031380;28;20059;-80
2022/02/19 06:55:48;;;;;;;5.13;1.42;;;10.50;71.80;;;;;;5013333;28;20017;-79
2022/02/19 06:58:13;;;;;;;5.88;1.42;;;10.50;72.10;;;;;;5030652;28;20487;-79
2022/02/19 07:00:40;;;;;;;6.28;1.40;;;10.40;71.80;;;;;;5013169;28;20022;-78
2022/02/19 07:03:05;;;;;;;8.48;1.67;;;10.40;72.30;;;;;;5004917;28;20030;-78
2022/02/19 07:05:31;;;;;;;6.15;1.40;;;10.40;71.90;;;;;;4993974;28;20033;-79
2022/02/19 07:07:56;;;;;;;5.68;1.40;;;10.50;72.30;;;;;;4993965;28;20826;-76
2022/02/19 07:10:22;;;;;;;7.38;1.73;;;10.40;71.80;;;;;;4994675;28;20037;-78
2022/02/19 07:12:47;;;;;;;8.57;1.63;;;10.40;72.00;;;;;;4993545;28;20100;-79
2022/02/19 07:15:14;;;;;;;9.00;2.22;;;10.50;72.20;;;;;;5011021;28;20052;-78
2022/02/19 07:17:51;;;;;;;6.95;1.60;;;10.50;72.20;;;;;;5010782;28;20025;-80
2022/02/19 07:20:21;;;;;;;13.68;2.80;;;10.50;72.10;;;;;;5013496;28;20021;-78
2022/02/19 07:22:51;;;;;;;12.63;1.70;;;10.50;72.10;;;;;;5013764;28;20022;-77
2022/02/19 07:25:17;;;;;;;8.73;1.70;;;10.50;72.10;;;;;;5013504;28;20040;-78
2022/02/19 07:27:45;;;;;;;10.18;1.85;;;10.50;72.10;;;;;;5031084;28;20029;-77
2022/02/19 07:30:16;;;;;;;14.43;1.95;;;10.50;72.20;;;;;;4993813;28;20038;-77
2022/02/19 07:32:42;;;;;;;11.43;1.60;;;10.50;72.10;;;;;;5012580;28;20197;-79
2022/02/19 07:35:09;;;;;;;7.85;1.83;;;10.50;72.10;;;;;;5027068;28;20544;-78
2022/02/19 07:37:38;;;;;;;9.32;2.00;;;10.40;72.00;;;;;;5032510;28;20056;-79
2022/02/19 07:40:06;;;;;;;9.40;2.50;;;10.50;72.10;;;;;;5019261;28;20071;-81
2022/02/19 07:42:32;;;;;;;11.15;2.10;;;10.40;72.00;;;;;;5054624;28;20117;-78
2022/02/19 07:44:58;;;;;;;9.32;2.13;;;10.40;71.90;;;;;;5028402;28;20243;-78
2022/02/19 07:47:29;;;;;;;8.32;1.50;;;10.40;72.10;;;;;;5015292;28;20034;-81
2022/02/19 07:58:19;;;;;;;8.43;2.53;;;10.50;72.60;;;;;;5035666;28;20437;-80
2022/02/19 08:00:51;;;;;;;11.95;2.22;;;10.50;72.90;;;;;;5022218;28;20025;-77
2022/02/19 08:03:17;;;;;;;8.45;2.45;;;10.50;72.70;;;;;;5013209;28;20029;-78
2022/02/19 08:05:43;;;;;;;8.10;2.15;;;10.50;72.80;;;;;;5015289;28;20041;-77
2022/02/19 08:08:09;;;;;;;8.50;2.70;;;10.50;72.80;;;;;;5007012;28;20403;-77
2022/02/19 08:10:38;;;;;;;7.88;2.15;;;10.50;72.80;;;;;;5015215;28;20033;-78
2022/02/19 08:13:07;;;;;;;10.68;2.35;;;10.50;72.80;;;;;;4997176;28;20034;-77
2022/02/19 08:15:34;;;;;;;10.20;2.33;;;10.50;72.90;;;;;;5020611;28;20507;-77
2022/02/19 08:18:00;;;;;;;8.50;2.53;;;10.50;73.10;;;;;;5016951;28;20438;-79
2022/02/19 08:20:26;;;;;;;8.55;2.53;;;10.50;73.60;;;;;;5010784;28;20026;-77
2022/02/19 08:22:51;;;;;;;8.35;2.28;;;10.40;72.90;;;;;;5007348;28;20074;-77
2022/02/19 08:25:17;;;;;;;9.55;2.58;;;10.40;72.90;;;;;;5010025;28;20484;-79
2022/02/19 08:27:42;;;;;;;9.15;2.40;;;10.50;73.10;;;;;;4996049;28;20163;-78
2022/02/19 08:30:08;;;;;;;7.07;2.28;;;10.40;72.80;;;;;;5018994;28;20025;-76
2022/02/19 08:32:34;;;;;;;10.23;2.53;;;10.40;72.80;;;;;;5015621;28;20481;-76
2022/02/19 08:35:00;;;;;;;8.75;2.38;;;10.50;73.00;;;;;;5015312;28;20120;-77
2022/02/19 08:37:25;;;;;;;7.93;2.35;;;10.50;73.10;;;;;;5015424;28;20034;-77
2022/02/19 08:39:51;;;;;;;8.10;2.35;;;10.40;73.00;;;;;;5015359;28;20067;-77
2022/02/19 08:42:17;;;;;;;7.85;2.15;;;10.50;72.90;;;;;;5053208;28;20025;-78
2022/02/19 08:44:42;;;;;;;8.60;2.50;;;10.50;73.00;;;;;;5052804;28;20834;-78
2022/02/19 08:47:08;;;;;;;6.65;1.95;;;10.50;72.90;;;;;;5042401;28;20125;-76
2022/02/19 08:49:34;;;;;;;9.05;2.30;;;10.40;72.80;;;;;;5014948;28;20029;-77
2022/02/19 08:52:00;;;;;;;8.73;2.28;;;10.50;73.00;;;;;;4996439;28;20121;-79
2022/02/19 08:54:26;;;;;;;7.65;1.90;;;10.40;73.00;;;;;;5009956;28;20093;-77
2022/02/19 08:56:52;;;;;;;7.13;1.95;;;10.40;73.00;;;;;;5010105;28;20018;-78
2022/02/19 08:59:18;;;;;;;8.25;1.95;;;10.50;73.00;;;;;;4997760;28;20021;-78
2022/02/19 09:01:44;;;;;;;10.95;2.25;;;10.50;72.50;;;;;;5015432;28;20390;-78
2022/02/19 09:04:10;;;;;;;13.30;2.35;;;10.40;69.80;;;;;;5015444;28;20032;-77
2022/02/19 09:06:36;;;;;;;21.83;3.63;;;10.30;68.30;;;;;;5033007;28;20033;-78
2022/02/19 09:09:05;;;;;;;12.43;2.42;;;10.30;67.70;;;;;;5014786;28;20109;-77
2022/02/19 09:11:31;;;;;;;8.05;2.05;;;10.20;67.40;;;;;;5032026;28;20487;-77
2022/02/19 09:13:58;;;;;;;10.52;2.03;;;10.30;67.10;;;;;;5014894;28;20025;-77
2022/02/19 09:16:25;;;;;;;8.18;2.20;;;10.10;66.60;;;;;;5015300;28;20034;-77
2022/02/19 09:18:50;;;;;;;47.72;5.28;;;10.10;66.90;;;;;;5014510;28;20151;-76
2022/02/19 09:21:16;;;;;;;16.45;3.10;;;10.10;66.30;;;;;;5014286;28;20101;-77
2022/02/19 09:23:41;;;;;;;16.27;2.83;;;10.00;65.60;;;;;;5033384;28;20030;-77
2022/02/19 09:26:07;;;;;;;12.27;2.40;;;10.00;65.30;;;;;;5032727;28;20475;-77
2022/02/19 09:28:32;;;;;;;13.07;2.53;;;10.00;65.30;;;;;;5015078;28;20018;-79
2022/02/19 09:30:58;;;;;;;10.35;1.90;;;10.00;65.10;;;;;;5014878;28;20030;-78
2022/02/19 09:33:23;;;;;;;7.88;2.03;;;10.00;65.00;;;;;;5014778;28;20025;-77
2022/02/19 09:35:49;;;;;;;14.00;2.70;;;10.00;65.10;;;;;;5015567;28;20030;-78
2022/02/19 09:38:16;;;;;;;30.10;3.42;;;10.10;65.40;;;;;;5014624;28;20486;-78
2022/02/19 09:40:42;;;;;;;37.67;4.30;;;10.10;65.60;;;;;;5013217;28;20029;-77
2022/02/19 09:43:08;;;;;;;21.38;3.47;;;10.10;65.50;;;;;;5013225;28;20033;-77
2022/02/19 09:45:33;;;;;;;16.88;2.50;;;10.10;65.40;;;;;;5012435;28;20056;-76
2022/02/19 09:48:06;;;;;;;12.82;2.15;;;10.10;65.30;;;;;;5012444;28;20036;-77
2022/02/19 09:50:33;;;;;;;14.23;2.67;;;10.10;65.30;;;;;;5011885;28;20486;-78
2022/02/19 09:52:59;;;;;;;17.77;3.00;;;10.10;65.20;;;;;;5005987;28;20060;-77
2022/02/19 09:55:25;;;;;;;18.27;2.58;;;10.10;66.10;;;;;;5002189;28;20067;-77
2022/02/19 09:57:50;;;;;;;11.82;2.00;;;10.20;67.40;;;;;;5012413;28;20490;-78
2022/02/19 10:00:35;;;;;;;14.38;2.03;;;10.20;68.60;;;;;;5009324;28;20049;-77
2022/02/19 10:03:01;;;;;;;13.30;2.80;;;10.20;69.20;;;;;;5023152;28;20033;-79
2022/02/19 10:05:31;;;;;;;12.27;2.20;;;10.30;69.60;;;;;;5040003;28;20455;-76
2022/02/19 10:08:06;;;;;;;12.35;2.20;;;10.30;70.00;;;;;;5027480;28;20087;-78
2022/02/19 10:10:35;;;;;;;8.95;2.05;;;10.30;70.50;;;;;;5011874;28;20233;-80
2022/02/19 10:13:01;;;;;;;10.90;2.72;;;10.30;70.90;;;;;;5029343;28;20108;-76
2022/02/19 10:15:44;;;;;;;10.57;2.00;;;10.40;71.10;;;;;;5028787;28;20112;-78
2022/02/19 10:18:25;;;;;;;10.27;2.13;;;10.40;71.30;;;;;;5012494;28;20083;-77
2022/02/19 10:21:10;;;;;;;14.93;2.45;;;10.40;71.30;;;;;;5025184;28;20048;-77
2022/02/19 10:23:39;;;;;;;17.70;2.83;;;10.40;70.90;;;;;;5031287;28;20111;-78
2022/02/19 10:26:05;;;;;;;10.77;2.40;;;10.50;70.30;;;;;;5006764;28;20034;-79
2022/02/19 10:28:31;;;;;;;12.95;2.60;;;10.50;70.50;;;;;;5009423;28;20029;-78
2022/02/19 10:31:18;;;;;;;10.95;2.38;;;10.60;70.80;;;;;;4990935;28;20049;-79
2022/02/19 10:33:44;;;;;;;9.40;2.15;;;10.50;70.90;;;;;;4991561;28;20033;-78
2022/02/19 10:36:20;;;;;;;10.82;2.25;;;10.50;71.20;;;;;;4992175;28;20026;-78
2022/02/19 10:38:57;;;;;;;9.10;2.15;;;10.50;71.40;;;;;;4991545;28;20080;-80
2022/02/19 10:41:36;;;;;;;9.25;2.10;;;10.50;71.60;;;;;;4990869;28;20029;-77
2022/02/19 10:44:24;;;;;;;8.18;1.80;;;10.50;71.90;;;;;;4990948;28;20435;-78
2022/02/19 10:46:50;;;;;;;5.75;1.65;;;10.50;72.10;;;;;;4990269;28;20080;-76
2022/02/19 10:49:16;;;;;;;7.35;2.13;;;10.50;72.30;;;;;;4989989;28;20037;-77
2022/02/19 10:51:43;;;;;;;7.30;1.60;;;10.50;72.40;;;;;;4990209;28;20037;-77
2022/02/19 10:54:09;;;;;;;7.38;1.60;;;10.50;72.30;;;;;;5008152;28;20030;-77
2022/02/19 10:56:36;;;;;;;9.25;1.75;;;10.50;72.40;;;;;;4996019;28;20068;-78
2022/02/19 10:59:07;;;;;;;8.85;2.47;;;10.50;72.50;;;;;;5009319;28;20494;-77
2022/02/19 11:01:52;;;;;;;9.15;2.13;;;10.50;72.50;;;;;;5009970;28;20061;-77
2022/02/19 11:04:19;;;;;;;8.68;2.25;;;10.50;72.40;;;;;;5010943;28;20083;-77
2022/02/19 11:06:46;;;;;;;7.45;2.08;;;10.50;72.40;;;;;;5028557;28;20033;-78
2022/02/19 11:09:13;;;;;;;9.10;2.00;;;10.50;72.30;;;;;;5010509;28;20080;-78
2022/02/19 11:11:42;;;;;;;7.40;1.85;;;10.50;72.50;;;;;;5027996;28;20521;-78
2022/02/19 11:14:10;;;;;;;8.48;2.30;;;10.50;72.60;;;;;;5013580;28;20116;-78
2022/02/19 11:16:36;;;;;;;7.43;2.10;;;10.50;72.50;;;;;;4995655;28;20064;-78
2022/02/19 11:19:03;;;;;;;7.97;1.73;;;10.50;72.40;;;;;;4993981;28;20049;-77
2022/02/19 11:21:30;;;;;;;6.38;1.80;;;10.50;72.40;;;;;;4994460;28;20491;-79
2022/02/19 11:24:07;;;;;;;9.02;1.80;;;10.60;72.60;;;;;;4994742;28;20034;-78
2022/02/19 11:26:33;;;;;;;8.10;1.83;;;10.50;72.60;;;;;;4995284;28;20037;-77
2022/02/19 11:29:10;;;;;;;10.13;2.00;;;10.50;72.60;;;;;;4994363;28;20038;-78
2022/02/19 11:31:37;;;;;;;14.30;2.28;;;10.50;72.60;;;;;;4995353;28;20030;-78
2022/02/19 11:34:05;;;;;;;11.95;2.10;;;10.60;72.40;;;;;;4994543;28;20029;-82
2022/02/19 11:36:33;;;;;;;13.07;2.47;;;10.60;72.40;;;;;;4994141;28;20105;-78
2022/02/19 11:38:58;;;;;;;17.90;2.75;;;10.60;72.40;;;;;;5011432;28;20418;-77
2022/02/19 11:41:37;;;;;;;9.45;1.92;;;10.50;72.60;;;;;;4994532;28;20033;-78
2022/02/19 11:44:23;;;;;;;12.65;2.15;;;10.60;72.60;;;;;;4994115;28;20149;-78
2022/02/19 11:46:51;;;;;;;6.55;1.60;;;10.50;72.50;;;;;;4994700;28;20065;-79
2022/02/19 11:49:44;;;;;;;7.95;1.55;;;10.60;72.60;;;;;;5010080;28;20083;-79
2022/02/19 11:52:16;;;;;;;8.15;1.70;;;10.60;72.40;;;;;;5011016;28;20048;-78
2022/02/19 11:54:42;;;;;;;10.55;1.70;;;10.70;72.30;;;;;;5032613;28;20410;-77
2022/02/19 11:57:21;;;;;;;8.90;1.55;;;10.70;72.10;;;;;;5014788;28;20034;-77
2022/02/19 11:59:49;;;;;;;8.13;1.75;;;10.70;71.80;;;;;;5014327;28;20029;-77
2022/02/19 12:02:18;;;;;;;7.43;1.75;;;10.80;71.70;;;;;;5032037;28;20052;-77
2022/02/19 12:05:04;;;;;;;10.13;1.80;;;10.80;71.50;;;;;;5014878;28;20493;-76
2022/02/19 12:07:30;;;;;;;8.88;1.67;;;10.70;71.50;;;;;;5014243;28;20025;-77
2022/02/19 12:10:08;;;;;;;7.18;1.60;;;10.70;71.50;;;;;;5013750;28;20506;-76
2022/02/19 12:13:09;;;;;;;7.68;1.70;;;10.70;71.50;;;;;;5014734;28;20357;-77
2022/02/19 12:15:40;;;;;;;8.98;2.00;;;10.70;71.70;;;;;;5013421;28;20025;-79
2022/02/19 12:18:09;;;;;;;7.53;1.60;;;10.70;71.80;;;;;;5012980;28;20439;-77
2022/02/19 12:20:36;;;;;;;8.38;1.77;;;10.70;71.80;;;;;;5046005;28;20076;-77
2022/02/19 12:23:05;;;;;;;6.55;2.03;;;10.70;71.90;;;;;;5012333;28;20025;-76
2022/02/19 12:26:00;;;;;;;8.52;1.63;;;10.70;71.80;;;;;;5013048;28;20037;-77
2022/02/19 12:28:26;;;;;;;15.25;2.05;;;10.70;71.70;;;;;;5013219;28;20121;-78
2022/02/19 12:31:11;;;;;;;20.20;2.70;;;10.70;72.00;;;;;;5029746;28;20064;-76
2022/02/19 12:33:37;;;;;;;12.82;1.98;;;10.70;73.20;;;;;;5031477;28;20037;-78
2022/02/19 12:36:08;;;;;;;7.65;2.10;;;10.70;72.50;;;;;;5013760;28;20413;-77
2022/02/19 12:38:34;;;;;;;10.10;2.15;;;10.70;72.10;;;;;;5014319;28;20087;-80
2022/02/19 12:41:00;;;;;;;9.25;1.80;;;10.80;72.10;;;;;;5032199;28;20622;-79
2022/02/19 12:43:26;;;;;;;9.25;1.92;;;10.80;71.80;;;;;;5014405;28;20518;-77
2022/02/19 12:45:52;;;;;;;7.60;1.90;;;10.90;71.70;;;;;;5031464;28;20038;-78
2022/02/19 12:48:17;;;;;;;9.00;1.77;;;10.90;71.50;;;;;;5032061;28;20033;-76
2022/02/19 12:51:00;;;;;;;6.65;1.45;;;11.00;71.30;;;;;;5031822;28;20041;-78
2022/02/19 12:53:26;;;;;;;6.32;1.50;;;11.00;71.00;;;;;;5014191;28;20035;-76
2022/02/19 12:55:58;;;;;;;23.30;2.35;;;11.10;71.00;;;;;;5013663;28;20116;-77